Pink Coral — 9HPY9 — position and weather

sailwx.info

Track history (hours):
 
Tides and Currents Weather Stations Pressure Air Temp Water Temp Dewpoint Dewpoint Depression Visibility Wind Speed Wind Dir Waves Ship Positions

Pink Coral

Last reported at 2015-Sep-04 01:26 UTC. Time now 2015-Sep-04 10:23 UTC.
Position N 37°38' E 016°17'.

Length 183 m; draft 8.4 m.

Type: Ship (hazmat cat A). MMSI: 249344000.

Date/timePositionNaut miles runAvg speedWind from/ knotsBaromVisibWave heightAir tempDewpointWater temp
2015-Sep-04 01:26N 37°38' E 016°17'1313.7
2015-Sep-04 00:27N 37°27' E 016°07'1213.4
2015-Sep-03 23:33N 37°17' E 015°58'1413.6
2015-Sep-03 22:33N 37°06' E 015°49'1413.6
2015-Sep-03 21:33N 36°55' E 015°39'1313.4
2015-Sep-03 20:33N 36°44' E 015°30'1313.2
2015-Sep-03 19:33N 36°32' E 015°22'1512.8
2015-Sep-03 18:25N 36°21' E 015°10'2513.1
2015-Sep-03 16:31N 36°01' E 014°51'8 7.3
2015-Sep-03 15:26N 35°54' E 014°47'0 0.0
2015-Sep-03 14:32N 35°54' E 014°47'0 0.0
2015-Sep-03 13:32N 35°54' E 014°47'0 0.1
2015-Sep-03 12:29N 35°54' E 014°47'0 0.0
2015-Sep-03 11:32N 35°54' E 014°47'0 0.5
2015-Sep-03 10:33N 35°54' E 014°47'1211.4
2015-Sep-03 09:30N 35°54' E 015°02'1 0.6
2015-Sep-03 08:22N 35°55' E 015°02'1 0.8
2015-Sep-03 07:23N 35°55' E 015°01'1 1.1
2015-Sep-03 06:33N 35°56' E 015°01'1 0.6
2015-Sep-03 05:33N 35°56' E 015°02'1 0.8
2015-Sep-03 04:33N 35°57' E 015°01'1 0.9
2015-Sep-03 03:33N 35°57' E 015°00'1 1.0
2015-Sep-03 02:28N 35°58' E 014°59'1 1.0
2015-Sep-03 01:33N 35°58' E 014°58'1 1.0
2015-Sep-03 00:33N 35°58' E 014°57'1 1.0
2015-Sep-02 23:31N 35°58' E 014°56'1 0.8
2015-Sep-02 22:32N 35°58' E 014°55'4 3.6
2015-Sep-02 21:33N 35°58' E 014°59'5 3.8
2015-Sep-02 20:16N 35°58' E 015°05'1 0.9
2015-Sep-02 18:31N 35°58' E 015°03'1 0.9
2015-Sep-02 17:29N 35°58' E 015°02'1 1.0
2015-Sep-02 16:31N 35°59' E 015°01'1 1.0
2015-Sep-02 15:33N 35°59' E 015°00'1 0.9
2015-Sep-02 14:31N 35°59' E 014°59'1 0.9
2015-Sep-02 13:33N 35°59' E 014°58'1 0.9
2015-Sep-02 12:33N 35°59' E 014°57'0 0.3
2015-Sep-02 11:33N 35°59' E 014°57'4 3.8
2015-Sep-02 10:32N 36°01' E 015°02'2 1.9
2015-Sep-02 09:30N 36°01' E 015°04'8 4.2
2015-Sep-02 07:33N 35°57' E 014°55'6 5.6
2015-Sep-02 06:33N 35°57' E 014°48'7 6.8
2015-Sep-02 05:33N 35°57' E 014°40'3 2.6
2015-Sep-02 04:33N 35°58' E 014°37'0 0.2
2015-Sep-02 03:33N 35°58' E 014°37'2 1.8
2015-Sep-02 02:33N 35°58' E 014°39'9 8.9
2015-Sep-02 01:33N 36°00' E 014°50'4 1.7
2015-Sep-01 23:07N 36°02' E 014°55'0 0.0
2015-Sep-01 22:19N 36°02' E 014°55'0 0.0
2015-Sep-01 21:32N 36°01' E 014°55'0 0.1
2015-Sep-01 20:31N 36°02' E 014°55'3411.5
2015-Sep-01 17:33N 36°31' E 015°16'1414.0
2015-Sep-01 16:33N 36°44' E 015°22'1413.8
2015-Sep-01 15:33N 36°58' E 015°26'1313.6
2015-Sep-01 14:33N 37°11' E 015°28'1413.7
2015-Sep-01 13:33N 37°24' E 015°30'1413.8
2015-Sep-01 12:33N 37°38' E 015°31'1413.8
2015-Sep-01 11:33N 37°52' E 015°33'1313.4
2015-Sep-01 10:33N 38°05' E 015°34'1313.1
2015-Sep-01 09:33N 38°17' E 015°41'9 8.8
2015-Sep-01 08:33N 38°21' E 015°30'1212.5
2015-Sep-01 07:33N 38°14' E 015°17'1 1.2
2015-Sep-01 06:32N 38°13' E 015°16'0 0.0
2015-Sep-01 05:26N 38°13' E 015°16'0 0.0
2015-Sep-01 04:32N 38°13' E 015°16'0 0.0
2015-Sep-01 03:32N 38°13' E 015°16'0 0.0
2015-Sep-01 02:26N 38°13' E 015°16'0 0.0
2015-Sep-01 01:32N 38°13' E 015°16'0 0.0
2015-Sep-01 00:32N 38°13' E 015°16'0 0.0
2015-Aug-31 23:32N 38°13' E 015°16'0 0.0
2015-Aug-31 22:32N 38°13' E 015°16'0 0.0
2015-Aug-31 21:32N 38°13' E 015°16'0 0.0
2015-Aug-31 20:32N 38°13' E 015°16'0 0.0
2015-Aug-31 19:32N 38°13' E 015°16'0 0.0
2015-Aug-31 18:32N 38°13' E 015°16'0 0.0
2015-Aug-31 17:32N 38°13' E 015°16'0 0.0
2015-Aug-31 16:32N 38°13' E 015°16'0 0.0
2015-Aug-31 15:32N 38°13' E 015°16'0 0.0
2015-Aug-31 14:32N 38°13' E 015°16'0 0.0
2015-Aug-31 13:32N 38°13' E 015°16'0 0.0
2015-Aug-31 12:32N 38°13' E 015°16'0 0.0
2015-Aug-31 11:32N 38°13' E 015°16'0 0.0
2015-Aug-31 10:32N 38°13' E 015°16'0 0.0
2015-Aug-31 09:32N 38°13' E 015°16'0 0.0
2015-Aug-31 08:32N 38°13' E 015°16'0 0.0
2015-Aug-31 07:32N 38°13' E 015°16'0 0.0
2015-Aug-31 06:32N 38°13' E 015°16'0 0.0
2015-Aug-31 05:32N 38°13' E 015°16'0 0.0
2015-Aug-31 04:32N 38°13' E 015°16'0 0.0
2015-Aug-31 03:32N 38°13' E 015°16'0 0.0
2015-Aug-31 02:32N 38°13' E 015°16'0 0.0
2015-Aug-31 01:32N 38°13' E 015°16'0 0.0
2015-Aug-31 00:31N 38°13' E 015°16'0 0.0
2015-Aug-30 23:32N 38°13' E 015°16'0 0.0
2015-Aug-30 22:32N 38°13' E 015°16'0 0.0
2015-Aug-30 21:32N 38°13' E 015°16'0 0.0
2015-Aug-30 20:32N 38°13' E 015°16'0 0.0
2015-Aug-30 19:32N 38°13' E 015°16'0 0.0
2015-Aug-30 18:32N 38°13' E 015°16'0 0.0
2015-Aug-30 17:19N 38°13' E 015°16'0 0.0
2015-Aug-30 16:32N 38°13' E 015°16'0 0.1
2015-Aug-30 15:33N 38°13' E 015°16'6 5.8
2015-Aug-30 14:33N 38°17' E 015°21'1211.8
2015-Aug-30 13:33N 38°21' E 015°35'7 7.1
2015-Aug-30 12:33N 38°15' E 015°39'1010.2
2015-Aug-30 11:33N 38°05' E 015°36'1110.9
2015-Aug-30 10:33N 37°54' E 015°35'1313.0
2015-Aug-30 09:33N 37°49' E 015°50'2713.0
2015-Aug-30 07:29N 37°42' E 016°23'35011.3
2015-Aug-29 00:20N 36°59' E 023°41'1012.8
2015-Aug-28 23:33N 37°07' E 023°47'1312.6
2015-Aug-28 22:33N 37°18' E 023°56'3811.9
2015-Aug-28 19:21N 37°49' E 024°24'4212.9
2015-Aug-28 16:08N 38°24' E 024°52'23010.5
2015-Aug-27 18:17N 40°53' E 028°39'6 7.5
2015-Aug-27 17:27N 40°54' E 028°47'4 4.2
2015-Aug-27 16:31N 40°56' E 028°52'0 0.1
2015-Aug-27 14:16N 40°56' E 028°52'5 7.2
2015-Aug-27 13:33N 40°58' E 028°58'  
2015-Aug-25 04:27N 44°20' E 037°08'1213.6
2015-Aug-25 03:33N 44°26' E 037°23'1413.6
2015-Aug-25 02:33N 44°32' E 037°40'1111.1
2015-Aug-25 01:33N 44°40' E 037°50'  
Track history (hours):
 
Tides and Currents Weather Stations Pressure Air Temp Water Temp Dewpoint Dewpoint Depression Visibility Wind Speed Wind Dir Waves Ship Positions

Pink Coral

Last reported at 2015-Sep-04 01:26 UTC. Time now 2015-Sep-04 10:23 UTC.
Position N 37°38' E 016°17'.

Length 183 m; draft 8.4 m.

Type: Ship (hazmat cat A). MMSI: 249344000.

Date/timePositionNaut miles runAvg speedWind from/ knotsBaromVisibWave heightAir tempDewpointWater temp
2015-Sep-04 01:26N 37°38' E 016°17'1313.7
2015-Sep-04 00:27N 37°27' E 016°07'1213.4
2015-Sep-03 23:33N 37°17' E 015°58'1413.6
2015-Sep-03 22:33N 37°06' E 015°49'1413.6
2015-Sep-03 21:33N 36°55' E 015°39'1313.4
2015-Sep-03 20:33N 36°44' E 015°30'1313.2
2015-Sep-03 19:33N 36°32' E 015°22'1512.8
2015-Sep-03 18:25N 36°21' E 015°10'2513.1
2015-Sep-03 16:31N 36°01' E 014°51'8 7.3
2015-Sep-03 15:26N 35°54' E 014°47'0 0.0
2015-Sep-03 14:32N 35°54' E 014°47'0 0.0
2015-Sep-03 13:32N 35°54' E 014°47'0 0.1
2015-Sep-03 12:29N 35°54' E 014°47'0 0.0
2015-Sep-03 11:32N 35°54' E 014°47'0 0.5
2015-Sep-03 10:33N 35°54' E 014°47'1211.4
2015-Sep-03 09:30N 35°54' E 015°02'1 0.6
2015-Sep-03 08:22N 35°55' E 015°02'1 0.8
2015-Sep-03 07:23N 35°55' E 015°01'1 1.1
2015-Sep-03 06:33N 35°56' E 015°01'1 0.6
2015-Sep-03 05:33N 35°56' E 015°02'1 0.8
2015-Sep-03 04:33N 35°57' E 015°01'1 0.9
2015-Sep-03 03:33N 35°57' E 015°00'1 1.0
2015-Sep-03 02:28N 35°58' E 014°59'1 1.0
2015-Sep-03 01:33N 35°58' E 014°58'1 1.0
2015-Sep-03 00:33N 35°58' E 014°57'1 1.0
2015-Sep-02 23:31N 35°58' E 014°56'1 0.8
2015-Sep-02 22:32N 35°58' E 014°55'4 3.6
2015-Sep-02 21:33N 35°58' E 014°59'5 3.8
2015-Sep-02 20:16N 35°58' E 015°05'1 0.9
2015-Sep-02 18:31N 35°58' E 015°03'1 0.9
2015-Sep-02 17:29N 35°58' E 015°02'1 1.0
2015-Sep-02 16:31N 35°59' E 015°01'1 1.0
2015-Sep-02 15:33N 35°59' E 015°00'1 0.9
2015-Sep-02 14:31N 35°59' E 014°59'1 0.9
2015-Sep-02 13:33N 35°59' E 014°58'1 0.9
2015-Sep-02 12:33N 35°59' E 014°57'0 0.3
2015-Sep-02 11:33N 35°59' E 014°57'4 3.8
2015-Sep-02 10:32N 36°01' E 015°02'2 1.9
2015-Sep-02 09:30N 36°01' E 015°04'8 4.2
2015-Sep-02 07:33N 35°57' E 014°55'6 5.6
2015-Sep-02 06:33N 35°57' E 014°48'7 6.8
2015-Sep-02 05:33N 35°57' E 014°40'3 2.6
2015-Sep-02 04:33N 35°58' E 014°37'0 0.2
2015-Sep-02 03:33N 35°58' E 014°37'2 1.8
2015-Sep-02 02:33N 35°58' E 014°39'9 8.9
2015-Sep-02 01:33N 36°00' E 014°50'4 1.7
2015-Sep-01 23:07N 36°02' E 014°55'0 0.0
2015-Sep-01 22:19N 36°02' E 014°55'0 0.0
2015-Sep-01 21:32N 36°01' E 014°55'0 0.1
2015-Sep-01 20:31N 36°02' E 014°55'3411.5
2015-Sep-01 17:33N 36°31' E 015°16'1414.0
2015-Sep-01 16:33N 36°44' E 015°22'1413.8
2015-Sep-01 15:33N 36°58' E 015°26'1313.6
2015-Sep-01 14:33N 37°11' E 015°28'1413.7
2015-Sep-01 13:33N 37°24' E 015°30'1413.8
2015-Sep-01 12:33N 37°38' E 015°31'1413.8
2015-Sep-01 11:33N 37°52' E 015°33'1313.4
2015-Sep-01 10:33N 38°05' E 015°34'1313.1
2015-Sep-01 09:33N 38°17' E 015°41'9 8.8
2015-Sep-01 08:33N 38°21' E 015°30'1212.5
2015-Sep-01 07:33N 38°14' E 015°17'1 1.2
2015-Sep-01 06:32N 38°13' E 015°16'0 0.0
2015-Sep-01 05:26N 38°13' E 015°16'0 0.0
2015-Sep-01 04:32N 38°13' E 015°16'0 0.0
2015-Sep-01 03:32N 38°13' E 015°16'0 0.0
2015-Sep-01 02:26N 38°13' E 015°16'0 0.0
2015-Sep-01 01:32N 38°13' E 015°16'0 0.0
2015-Sep-01 00:32N 38°13' E 015°16'0 0.0
2015-Aug-31 23:32N 38°13' E 015°16'0 0.0
2015-Aug-31 22:32N 38°13' E 015°16'0 0.0
2015-Aug-31 21:32N 38°13' E 015°16'0 0.0
2015-Aug-31 20:32N 38°13' E 015°16'0 0.0
2015-Aug-31 19:32N 38°13' E 015°16'0 0.0
2015-Aug-31 18:32N 38°13' E 015°16'0 0.0
2015-Aug-31 17:32N 38°13' E 015°16'0 0.0
2015-Aug-31 16:32N 38°13' E 015°16'0 0.0
2015-Aug-31 15:32N 38°13' E 015°16'0 0.0
2015-Aug-31 14:32N 38°13' E 015°16'0 0.0
2015-Aug-31 13:32N 38°13' E 015°16'0 0.0
2015-Aug-31 12:32N 38°13' E 015°16'0 0.0
2015-Aug-31 11:32N 38°13' E 015°16'0 0.0
2015-Aug-31 10:32N 38°13' E 015°16'0 0.0
2015-Aug-31 09:32N 38°13' E 015°16'0 0.0
2015-Aug-31 08:32N 38°13' E 015°16'0 0.0
2015-Aug-31 07:32N 38°13' E 015°16'0 0.0
2015-Aug-31 06:32N 38°13' E 015°16'0 0.0
2015-Aug-31 05:32N 38°13' E 015°16'0 0.0
2015-Aug-31 04:32N 38°13' E 015°16'0 0.0
2015-Aug-31 03:32N 38°13' E 015°16'0 0.0
2015-Aug-31 02:32N 38°13' E 015°16'0 0.0
2015-Aug-31 01:32N 38°13' E 015°16'0 0.0
2015-Aug-31 00:31N 38°13' E 015°16'0 0.0
2015-Aug-30 23:32N 38°13' E 015°16'0 0.0
2015-Aug-30 22:32N 38°13' E 015°16'0 0.0
2015-Aug-30 21:32N 38°13' E 015°16'0 0.0
2015-Aug-30 20:32N 38°13' E 015°16'0 0.0
2015-Aug-30 19:32N 38°13' E 015°16'0 0.0
2015-Aug-30 18:32N 38°13' E 015°16'0 0.0
2015-Aug-30 17:19N 38°13' E 015°16'0 0.0
2015-Aug-30 16:32N 38°13' E 015°16'0 0.1
2015-Aug-30 15:33N 38°13' E 015°16'6 5.8
2015-Aug-30 14:33N 38°17' E 015°21'1211.8
2015-Aug-30 13:33N 38°21' E 015°35'7 7.1
2015-Aug-30 12:33N 38°15' E 015°39'1010.2
2015-Aug-30 11:33N 38°05' E 015°36'1110.9
2015-Aug-30 10:33N 37°54' E 015°35'1313.0
2015-Aug-30 09:33N 37°49' E 015°50'2713.0
2015-Aug-30 07:29N 37°42' E 016°23'35011.3
2015-Aug-29 00:20N 36°59' E 023°41'1012.8
2015-Aug-28 23:33N 37°07' E 023°47'1312.6
2015-Aug-28 22:33N 37°18' E 023°56'3811.9
2015-Aug-28 19:21N 37°49' E 024°24'4212.9
2015-Aug-28 16:08N 38°24' E 024°52'23010.5
2015-Aug-27 18:17N 40°53' E 028°39'6 7.5
2015-Aug-27 17:27N 40°54' E 028°47'4 4.2
2015-Aug-27 16:31N 40°56' E 028°52'0 0.1
2015-Aug-27 14:16N 40°56' E 028°52'5 7.2
2015-Aug-27 13:33N 40°58' E 028°58'  
2015-Aug-25 04:27N 44°20' E 037°08'1213.6
2015-Aug-25 03:33N 44°26' E 037°23'1413.6
2015-Aug-25 02:33N 44°32' E 037°40'1111.1
2015-Aug-25 01:33N 44°40' E 037°50'  

Dump ship's entire track history